sensor_id;sensor_type;location;lat;lon;timestamp;temperature;humidity
7234;DHT22;3658;47.992;10.158;2023-06-10T00:00:47;22.00;50.30
7234;DHT22;3658;47.992;10.158;2023-06-10T00:03:14;22.10;50.30
7234;DHT22;3658;47.992;10.158;2023-06-10T00:05:41;22.10;50.40
7234;DHT22;3658;47.992;10.158;2023-06-10T00:08:08;22.00;50.20
7234;DHT22;3658;47.992;10.158;2023-06-10T00:10:38;22.10;50.30
7234;DHT22;3658;47.992;10.158;2023-06-10T00:13:06;22.00;50.20
7234;DHT22;3658;47.992;10.158;2023-06-10T00:15:34;22.10;50.30
7234;DHT22;3658;47.992;10.158;2023-06-10T00:18:02;22.10;50.30
7234;DHT22;3658;47.992;10.158;2023-06-10T00:20:29;22.00;50.20
7234;DHT22;3658;47.992;10.158;2023-06-10T00:22:58;22.10;50.30
7234;DHT22;3658;47.992;10.158;2023-06-10T00:25:24;22.10;50.30
7234;DHT22;3658;47.992;10.158;2023-06-10T00:27:53;22.10;50.30
7234;DHT22;3658;47.992;10.158;2023-06-10T00:30:20;22.10;50.30
7234;DHT22;3658;47.992;10.158;2023-06-10T00:32:47;22.00;50.20
7234;DHT22;3658;47.992;10.158;2023-06-10T00:35:14;22.00;50.20
7234;DHT22;3658;47.992;10.158;2023-06-10T00:37:40;22.10;50.30
7234;DHT22;3658;47.992;10.158;2023-06-10T00:40:08;22.00;50.20
7234;DHT22;3658;47.992;10.158;2023-06-10T00:42:35;22.00;50.20
7234;DHT22;3658;47.992;10.158;2023-06-10T00:45:04;22.00;50.20
7234;DHT22;3658;47.992;10.158;2023-06-10T00:47:31;22.10;50.20
7234;DHT22;3658;47.992;10.158;2023-06-10T00:49:58;22.00;50.20
7234;DHT22;3658;47.992;10.158;2023-06-10T00:52:27;22.10;50.20
7234;DHT22;3658;47.992;10.158;2023-06-10T00:54:54;22.10;50.20
7234;DHT22;3658;47.992;10.158;2023-06-10T00:57:21;22.00;50.20
7234;DHT22;3658;47.992;10.158;2023-06-10T00:59:49;22.00;50.20
7234;DHT22;3658;47.992;10.158;2023-06-10T01:02:17;22.10;50.20
7234;DHT22;3658;47.992;10.158;2023-06-10T01:04:44;22.00;50.20
7234;DHT22;3658;47.992;10.158;2023-06-10T01:07:19;22.00;50.10
7234;DHT22;3658;47.992;10.158;2023-06-10T01:09:54;22.10;50.20
7234;DHT22;3658;47.992;10.158;2023-06-10T01:12:26;22.00;50.10
7234;DHT22;3658;47.992;10.158;2023-06-10T01:14:55;22.00;50.20
7234;DHT22;3658;47.992;10.158;2023-06-10T01:17:24;22.10;50.20
7234;DHT22;3658;47.992;10.158;2023-06-10T01:19:56;22.00;50.10
7234;DHT22;3658;47.992;10.158;2023-06-10T01:22:25;22.00;50.10
7234;DHT22;3658;47.992;10.158;2023-06-10T01:24:54;22.00;50.10
7234;DHT22;3658;47.992;10.158;2023-06-10T01:27:26;22.00;50.10
7234;DHT22;3658;47.992;10.158;2023-06-10T01:29:59;22.00;50.20
7234;DHT22;3658;47.992;10.158;2023-06-10T01:32:33;22.00;50.20
7234;DHT22;3658;47.992;10.158;2023-06-10T01:35:02;22.00;50.10
7234;DHT22;3658;47.992;10.158;2023-06-10T01:37:31;22.10;50.20
7234;DHT22;3658;47.992;10.158;2023-06-10T01:40:02;22.10;50.20
7234;DHT22;3658;47.992;10.158;2023-06-10T01:42:31;22.00;50.10
7234;DHT22;3658;47.992;10.158;2023-06-10T01:44:58;22.00;50.10
7234;DHT22;3658;47.992;10.158;2023-06-10T01:47:25;22.10;50.20
7234;DHT22;3658;47.992;10.158;2023-06-10T01:49:52;22.00;50.10
7234;DHT22;3658;47.992;10.158;2023-06-10T01:52:19;22.00;50.10
7234;DHT22;3658;47.992;10.158;2023-06-10T01:54:47;22.00;50.10
7234;DHT22;3658;47.992;10.158;2023-06-10T01:57:13;22.00;50.10
7234;DHT22;3658;47.992;10.158;2023-06-10T01:59:41;22.00;50.10
7234;DHT22;3658;47.992;10.158;2023-06-10T02:02:09;22.00;50.10
7234;DHT22;3658;47.992;10.158;2023-06-10T02:04:36;22.00;50.10
7234;DHT22;3658;47.992;10.158;2023-06-10T02:07:03;22.10;50.10
7234;DHT22;3658;47.992;10.158;2023-06-10T02:09:31;22.00;50.10
7234;DHT22;3658;47.992;10.158;2023-06-10T02:12:02;22.10;50.20
7234;DHT22;3658;47.992;10.158;2023-06-10T02:14:29;22.10;50.10
7234;DHT22;3658;47.992;10.158;2023-06-10T02:16:55;22.00;50.00
7234;DHT22;3658;47.992;10.158;2023-06-10T02:19:23;22.00;50.00
7234;DHT22;3658;47.992;10.158;2023-06-10T02:21:50;22.10;50.20
7234;DHT22;3658;47.992;10.158;2023-06-10T02:24:17;22.00;50.00
7234;DHT22;3658;47.992;10.158;2023-06-10T02:26:44;22.00;50.70
7234;DHT22;3658;47.992;10.158;2023-06-10T02:29:14;22.00;50.00
7234;DHT22;3658;47.992;10.158;2023-06-10T02:31:41;22.00;50.00
7234;DHT22;3658;47.992;10.158;2023-06-10T02:34:08;22.00;50.00
7234;DHT22;3658;47.992;10.158;2023-06-10T02:36:35;22.00;50.00
7234;DHT22;3658;47.992;10.158;2023-06-10T02:39:02;22.00;50.00
7234;DHT22;3658;47.992;10.158;2023-06-10T02:41:29;22.00;50.00
7234;DHT22;3658;47.992;10.158;2023-06-10T02:43:56;22.00;50.00
7234;DHT22;3658;47.992;10.158;2023-06-10T02:46:24;22.00;50.00
7234;DHT22;3658;47.992;10.158;2023-06-10T02:48:51;22.00;50.00
7234;DHT22;3658;47.992;10.158;2023-06-10T02:51:18;22.00;50.00
7234;DHT22;3658;47.992;10.158;2023-06-10T02:53:45;22.00;50.00
7234;DHT22;3658;47.992;10.158;2023-06-10T02:56:12;22.00;50.00
7234;DHT22;3658;47.992;10.158;2023-06-10T02:58:38;22.00;50.00
7234;DHT22;3658;47.992;10.158;2023-06-10T03:01:05;22.00;50.00
7234;DHT22;3658;47.992;10.158;2023-06-10T03:03:33;22.00;50.00
7234;DHT22;3658;47.992;10.158;2023-06-10T03:06:02;22.10;50.10
7234;DHT22;3658;47.992;10.158;2023-06-10T03:08:29;22.00;50.00
7234;DHT22;3658;47.992;10.158;2023-06-10T03:10:56;22.00;50.00
7234;DHT22;3658;47.992;10.158;2023-06-10T03:13:23;22.00;50.00
7234;DHT22;3658;47.992;10.158;2023-06-10T03:15:50;22.00;50.00
7234;DHT22;3658;47.992;10.158;2023-06-10T03:18:17;22.00;50.00
7234;DHT22;3658;47.992;10.158;2023-06-10T03:20:45;22.00;50.00
7234;DHT22;3658;47.992;10.158;2023-06-10T03:23:11;22.00;50.00
7234;DHT22;3658;47.992;10.158;2023-06-10T03:25:38;22.00;50.00
7234;DHT22;3658;47.992;10.158;2023-06-10T03:28:05;22.00;50.00
7234;DHT22;3658;47.992;10.158;2023-06-10T03:30:32;22.00;50.00
7234;DHT22;3658;47.992;10.158;2023-06-10T03:32:58;22.00;50.00
7234;DHT22;3658;47.992;10.158;2023-06-10T03:35:26;22.00;50.00
7234;DHT22;3658;47.992;10.158;2023-06-10T03:37:54;22.00;50.00
7234;DHT22;3658;47.992;10.158;2023-06-10T03:40:21;22.00;50.00
7234;DHT22;3658;47.992;10.158;2023-06-10T03:42:47;22.00;50.00
7234;DHT22;3658;47.992;10.158;2023-06-10T03:45:14;22.00;50.00
7234;DHT22;3658;47.992;10.158;2023-06-10T03:47:41;22.00;50.00
7234;DHT22;3658;47.992;10.158;2023-06-10T03:50:09;22.00;49.90
7234;DHT22;3658;47.992;10.158;2023-06-10T03:52:38;22.00;50.00
7234;DHT22;3658;47.992;10.158;2023-06-10T03:55:07;22.00;49.90
7234;DHT22;3658;47.992;10.158;2023-06-10T03:57:34;22.00;49.90
7234;DHT22;3658;47.992;10.158;2023-06-10T04:00:00;22.00;49.90
7234;DHT22;3658;47.992;10.158;2023-06-10T04:02:32;22.00;49.90
7234;DHT22;3658;47.992;10.158;2023-06-10T04:05:00;22.00;49.90
7234;DHT22;3658;47.992;10.158;2023-06-10T04:07:27;22.00;49.90
7234;DHT22;3658;47.992;10.158;2023-06-10T04:09:54;22.00;49.90
7234;DHT22;3658;47.992;10.158;2023-06-10T04:12:22;22.00;49.90
7234;DHT22;3658;47.992;10.158;2023-06-10T04:14:48;22.00;49.90
7234;DHT22;3658;47.992;10.158;2023-06-10T04:17:17;22.00;49.90
7234;DHT22;3658;47.992;10.158;2023-06-10T04:19:43;22.00;49.90
7234;DHT22;3658;47.992;10.158;2023-06-10T04:22:11;22.00;49.90
7234;DHT22;3658;47.992;10.158;2023-06-10T04:24:37;22.00;49.90
7234;DHT22;3658;47.992;10.158;2023-06-10T04:27:05;22.00;49.90
7234;DHT22;3658;47.992;10.158;2023-06-10T04:29:33;22.00;49.90
7234;DHT22;3658;47.992;10.158;2023-06-10T04:32:00;22.00;49.90
7234;DHT22;3658;47.992;10.158;2023-06-10T04:34:27;22.00;49.90
7234;DHT22;3658;47.992;10.158;2023-06-10T04:36:54;22.00;49.90
7234;DHT22;3658;47.992;10.158;2023-06-10T04:39:21;22.00;49.90
7234;DHT22;3658;47.992;10.158;2023-06-10T04:41:48;22.00;49.90
7234;DHT22;3658;47.992;10.158;2023-06-10T04:44:15;22.00;49.90
7234;DHT22;3658;47.992;10.158;2023-06-10T04:46:43;22.00;49.90
7234;DHT22;3658;47.992;10.158;2023-06-10T04:49:10;22.00;49.80
7234;DHT22;3658;47.992;10.158;2023-06-10T04:51:39;22.00;49.80
7234;DHT22;3658;47.992;10.158;2023-06-10T04:54:06;22.00;50.20
7234;DHT22;3658;47.992;10.158;2023-06-10T04:56:33;22.10;50.20
7234;DHT22;3658;47.992;10.158;2023-06-10T04:59:00;22.00;50.00
7234;DHT22;3658;47.992;10.158;2023-06-10T05:01:27;22.00;50.00
7234;DHT22;3658;47.992;10.158;2023-06-10T05:03:55;22.00;49.80
7234;DHT22;3658;47.992;10.158;2023-06-10T05:06:22;22.00;49.90
7234;DHT22;3658;47.992;10.158;2023-06-10T05:08:48;22.00;50.00
7234;DHT22;3658;47.992;10.158;2023-06-10T05:11:15;22.00;49.90
7234;DHT22;3658;47.992;10.158;2023-06-10T05:13:42;22.00;49.90
7234;DHT22;3658;47.992;10.158;2023-06-10T05:16:09;22.00;49.90
7234;DHT22;3658;47.992;10.158;2023-06-10T05:18:36;22.00;49.90
7234;DHT22;3658;47.992;10.158;2023-06-10T05:21:04;22.00;49.90
7234;DHT22;3658;47.992;10.158;2023-06-10T05:23:31;22.00;49.90
7234;DHT22;3658;47.992;10.158;2023-06-10T05:25:58;22.00;49.80
7234;DHT22;3658;47.992;10.158;2023-06-10T05:28:25;22.00;49.90
7234;DHT22;3658;47.992;10.158;2023-06-10T05:30:52;22.00;49.80
7234;DHT22;3658;47.992;10.158;2023-06-10T05:33:18;22.00;49.80
7234;DHT22;3658;47.992;10.158;2023-06-10T05:35:45;22.00;49.80
7234;DHT22;3658;47.992;10.158;2023-06-10T05:38:13;22.00;49.80
7234;DHT22;3658;47.992;10.158;2023-06-10T05:40:40;22.00;49.80
7234;DHT22;3658;47.992;10.158;2023-06-10T05:43:07;22.00;49.80
7234;DHT22;3658;47.992;10.158;2023-06-10T05:45:35;22.00;49.80
7234;DHT22;3658;47.992;10.158;2023-06-10T05:48:01;22.00;49.80
7234;DHT22;3658;47.992;10.158;2023-06-10T05:50:28;22.00;49.80
7234;DHT22;3658;47.992;10.158;2023-06-10T05:52:55;22.00;49.90
7234;DHT22;3658;47.992;10.158;2023-06-10T05:55:24;22.00;50.50
7234;DHT22;3658;47.992;10.158;2023-06-10T05:57:58;22.00;49.80
7234;DHT22;3658;47.992;10.158;2023-06-10T06:00:26;22.00;49.80
7234;DHT22;3658;47.992;10.158;2023-06-10T06:02:53;22.00;49.80
7234;DHT22;3658;47.992;10.158;2023-06-10T06:05:21;22.00;49.80
7234;DHT22;3658;47.992;10.158;2023-06-10T06:07:47;22.00;49.90
7234;DHT22;3658;47.992;10.158;2023-06-10T06:10:14;22.00;49.90
7234;DHT22;3658;47.992;10.158;2023-06-10T06:12:42;22.00;49.90
7234;DHT22;3658;47.992;10.158;2023-06-10T06:15:10;22.00;49.90
7234;DHT22;3658;47.992;10.158;2023-06-10T06:17:37;22.00;49.90
7234;DHT22;3658;47.992;10.158;2023-06-10T06:20:05;22.00;49.90
7234;DHT22;3658;47.992;10.158;2023-06-10T06:22:32;22.00;49.90
7234;DHT22;3658;47.992;10.158;2023-06-10T06:24:59;22.00;49.90
7234;DHT22;3658;47.992;10.158;2023-06-10T06:27:25;22.00;49.90
7234;DHT22;3658;47.992;10.158;2023-06-10T06:29:53;22.00;49.90
7234;DHT22;3658;47.992;10.158;2023-06-10T06:32:20;22.00;49.90
7234;DHT22;3658;47.992;10.158;2023-06-10T06:34:48;22.00;49.90
7234;DHT22;3658;47.992;10.158;2023-06-10T06:37:15;22.00;49.90
7234;DHT22;3658;47.992;10.158;2023-06-10T06:39:41;22.00;49.90
7234;DHT22;3658;47.992;10.158;2023-06-10T06:42:08;22.00;49.90
7234;DHT22;3658;47.992;10.158;2023-06-10T06:44:35;22.00;49.90
7234;DHT22;3658;47.992;10.158;2023-06-10T06:47:03;22.00;49.90
7234;DHT22;3658;47.992;10.158;2023-06-10T06:49:30;22.00;49.90
7234;DHT22;3658;47.992;10.158;2023-06-10T06:51:57;22.00;49.90
7234;DHT22;3658;47.992;10.158;2023-06-10T06:54:24;22.00;49.90
7234;DHT22;3658;47.992;10.158;2023-06-10T06:56:50;22.00;49.90
7234;DHT22;3658;47.992;10.158;2023-06-10T06:59:17;22.00;50.00
7234;DHT22;3658;47.992;10.158;2023-06-10T07:01:45;22.00;49.90
7234;DHT22;3658;47.992;10.158;2023-06-10T07:04:15;22.00;49.90
7234;DHT22;3658;47.992;10.158;2023-06-10T07:06:42;22.00;50.00
7234;DHT22;3658;47.992;10.158;2023-06-10T07:09:09;22.00;49.90
7234;DHT22;3658;47.992;10.158;2023-06-10T07:11:36;22.00;50.00
7234;DHT22;3658;47.992;10.158;2023-06-10T07:14:03;22.00;50.00
7234;DHT22;3658;47.992;10.158;2023-06-10T07:16:29;22.00;50.00
7234;DHT22;3658;47.992;10.158;2023-06-10T07:18:56;22.00;50.00
7234;DHT22;3658;47.992;10.158;2023-06-10T07:21:24;22.00;50.00
7234;DHT22;3658;47.992;10.158;2023-06-10T07:23:51;22.00;50.00
7234;DHT22;3658;47.992;10.158;2023-06-10T07:26:19;22.00;50.00
7234;DHT22;3658;47.992;10.158;2023-06-10T07:28:45;22.00;50.00
7234;DHT22;3658;47.992;10.158;2023-06-10T07:31:12;22.00;50.00
7234;DHT22;3658;47.992;10.158;2023-06-10T07:33:39;22.00;50.00
7234;DHT22;3658;47.992;10.158;2023-06-10T07:36:06;22.00;50.00
7234;DHT22;3658;47.992;10.158;2023-06-10T07:38:35;22.00;50.00
7234;DHT22;3658;47.992;10.158;2023-06-10T07:41:01;22.00;50.00
7234;DHT22;3658;47.992;10.158;2023-06-10T07:43:28;22.00;50.00
7234;DHT22;3658;47.992;10.158;2023-06-10T07:45:55;22.00;50.00
7234;DHT22;3658;47.992;10.158;2023-06-10T07:48:22;22.00;50.00
7234;DHT22;3658;47.992;10.158;2023-06-10T07:50:48;22.00;50.00
7234;DHT22;3658;47.992;10.158;2023-06-10T07:53:15;22.00;50.00
7234;DHT22;3658;47.992;10.158;2023-06-10T07:55:43;22.00;50.00
7234;DHT22;3658;47.992;10.158;2023-06-10T07:58:10;21.90;50.00
7234;DHT22;3658;47.992;10.158;2023-06-10T08:00:37;22.00;50.00
7234;DHT22;3658;47.992;10.158;2023-06-10T08:03:03;22.00;50.00
7234;DHT22;3658;47.992;10.158;2023-06-10T08:05:30;22.00;50.00
7234;DHT22;3658;47.992;10.158;2023-06-10T08:07:57;22.00;50.10
7234;DHT22;3658;47.992;10.158;2023-06-10T08:10:24;22.00;50.10
7234;DHT22;3658;47.992;10.158;2023-06-10T08:12:52;22.00;50.10
7234;DHT22;3658;47.992;10.158;2023-06-10T08:15:19;22.00;50.10
7234;DHT22;3658;47.992;10.158;2023-06-10T08:17:45;22.00;50.10
7234;DHT22;3658;47.992;10.158;2023-06-10T08:20:12;22.00;50.10
7234;DHT22;3658;47.992;10.158;2023-06-10T08:22:39;22.00;50.10
7234;DHT22;3658;47.992;10.158;2023-06-10T08:25:06;22.00;50.10
7234;DHT22;3658;47.992;10.158;2023-06-10T08:27:33;22.00;50.10
7234;DHT22;3658;47.992;10.158;2023-06-10T08:30:01;22.00;50.10
7234;DHT22;3658;47.992;10.158;2023-06-10T08:32:28;22.00;50.10
7234;DHT22;3658;47.992;10.158;2023-06-10T08:34:56;22.00;50.10
7234;DHT22;3658;47.992;10.158;2023-06-10T08:37:23;22.00;50.10
7234;DHT22;3658;47.992;10.158;2023-06-10T08:39:50;22.00;50.20
7234;DHT22;3658;47.992;10.158;2023-06-10T08:42:24;22.00;50.20
7234;DHT22;3658;47.992;10.158;2023-06-10T08:44:53;22.00;50.20
7234;DHT22;3658;47.992;10.158;2023-06-10T08:47:25;22.00;50.20
7234;DHT22;3658;47.992;10.158;2023-06-10T08:49:55;22.00;50.20
7234;DHT22;3658;47.992;10.158;2023-06-10T08:52:29;22.00;50.20
7234;DHT22;3658;47.992;10.158;2023-06-10T08:55:03;22.00;50.20
7234;DHT22;3658;47.992;10.158;2023-06-10T08:57:30;22.00;50.20
7234;DHT22;3658;47.992;10.158;2023-06-10T08:59:57;22.00;50.20
7234;DHT22;3658;47.992;10.158;2023-06-10T09:02:27;22.00;50.20
7234;DHT22;3658;47.992;10.158;2023-06-10T09:04:56;22.00;50.20
7234;DHT22;3658;47.992;10.158;2023-06-10T09:07:23;22.00;50.20
7234;DHT22;3658;47.992;10.158;2023-06-10T09:09:50;22.00;50.20
7234;DHT22;3658;47.992;10.158;2023-06-10T09:12:19;22.00;50.20
7234;DHT22;3658;47.992;10.158;2023-06-10T09:14:45;22.00;50.30
7234;DHT22;3658;47.992;10.158;2023-06-10T09:17:12;22.00;50.20
7234;DHT22;3658;47.992;10.158;2023-06-10T09:19:41;22.00;50.30
7234;DHT22;3658;47.992;10.158;2023-06-10T09:22:09;22.00;50.20
7234;DHT22;3658;47.992;10.158;2023-06-10T09:24:36;22.00;50.30
7234;DHT22;3658;47.992;10.158;2023-06-10T09:27:04;22.00;50.30
7234;DHT22;3658;47.992;10.158;2023-06-10T09:29:32;22.00;50.30
7234;DHT22;3658;47.992;10.158;2023-06-10T09:32:01;22.00;50.30
7234;DHT22;3658;47.992;10.158;2023-06-10T09:34:28;22.00;50.30
7234;DHT22;3658;47.992;10.158;2023-06-10T09:36:56;22.00;50.30
7234;DHT22;3658;47.992;10.158;2023-06-10T09:39:23;22.00;50.30
7234;DHT22;3658;47.992;10.158;2023-06-10T09:41:50;22.00;50.30
7234;DHT22;3658;47.992;10.158;2023-06-10T09:44:18;22.00;50.20
7234;DHT22;3658;47.992;10.158;2023-06-10T09:46:49;22.00;50.30
7234;DHT22;3658;47.992;10.158;2023-06-10T09:49:17;22.00;50.30
7234;DHT22;3658;47.992;10.158;2023-06-10T09:51:50;22.00;50.30
7234;DHT22;3658;47.992;10.158;2023-06-10T09:54:20;22.00;50.30
7234;DHT22;3658;47.992;10.158;2023-06-10T09:56:47;22.00;50.30
7234;DHT22;3658;47.992;10.158;2023-06-10T09:59:14;22.00;51.00
7234;DHT22;3658;47.992;10.158;2023-06-10T10:01:41;22.00;50.30
7234;DHT22;3658;47.992;10.158;2023-06-10T10:04:08;22.00;50.30
7234;DHT22;3658;47.992;10.158;2023-06-10T10:06:35;22.00;50.30
7234;DHT22;3658;47.992;10.158;2023-06-10T10:09:03;22.00;50.40
7234;DHT22;3658;47.992;10.158;2023-06-10T10:11:33;22.00;50.30
7234;DHT22;3658;47.992;10.158;2023-06-10T10:14:04;22.00;50.30
7234;DHT22;3658;47.992;10.158;2023-06-10T10:16:36;22.00;50.30
7234;DHT22;3658;47.992;10.158;2023-06-10T10:19:07;22.00;50.30
7234;DHT22;3658;47.992;10.158;2023-06-10T10:21:38;22.00;50.30
7234;DHT22;3658;47.992;10.158;2023-06-10T10:24:12;22.00;50.30
7234;DHT22;3658;47.992;10.158;2023-06-10T10:26:42;22.00;50.30
7234;DHT22;3658;47.992;10.158;2023-06-10T10:29:14;22.00;50.30
7234;DHT22;3658;47.992;10.158;2023-06-10T10:31:43;22.00;50.30
7234;DHT22;3658;47.992;10.158;2023-06-10T10:34:14;22.00;50.30
7234;DHT22;3658;47.992;10.158;2023-06-10T10:36:42;22.00;50.40
7234;DHT22;3658;47.992;10.158;2023-06-10T10:39:09;22.00;50.30
7234;DHT22;3658;47.992;10.158;2023-06-10T10:41:38;22.00;50.40
7234;DHT22;3658;47.992;10.158;2023-06-10T10:44:06;22.00;50.40
7234;DHT22;3658;47.992;10.158;2023-06-10T10:46:42;22.00;50.40
7234;DHT22;3658;47.992;10.158;2023-06-10T10:49:12;22.00;50.40
7234;DHT22;3658;47.992;10.158;2023-06-10T10:51:54;22.00;50.40
7234;DHT22;3658;47.992;10.158;2023-06-10T10:54:28;22.00;50.40
7234;DHT22;3658;47.992;10.158;2023-06-10T10:57:15;22.00;50.40
7234;DHT22;3658;47.992;10.158;2023-06-10T10:59:46;22.00;50.40
7234;DHT22;3658;47.992;10.158;2023-06-10T11:02:16;22.10;50.50
7234;DHT22;3658;47.992;10.158;2023-06-10T11:04:46;22.00;50.40
7234;DHT22;3658;47.992;10.158;2023-06-10T11:07:13;22.00;50.40
7234;DHT22;3658;47.992;10.158;2023-06-10T11:09:57;22.00;50.40
7234;DHT22;3658;47.992;10.158;2023-06-10T11:12:25;22.00;50.50
7234;DHT22;3658;47.992;10.158;2023-06-10T11:14:55;22.10;50.50
7234;DHT22;3658;47.992;10.158;2023-06-10T11:17:22;22.00;50.40
7234;DHT22;3658;47.992;10.158;2023-06-10T11:19:49;22.00;50.40
7234;DHT22;3658;47.992;10.158;2023-06-10T11:22:17;22.00;50.50
7234;DHT22;3658;47.992;10.158;2023-06-10T11:24:47;22.00;50.40
7234;DHT22;3658;47.992;10.158;2023-06-10T11:27:16;22.10;50.60
7234;DHT22;3658;47.992;10.158;2023-06-10T11:30:17;22.00;50.40
7234;DHT22;3658;47.992;10.158;2023-06-10T11:32:45;22.00;50.40
7234;DHT22;3658;47.992;10.158;2023-06-10T11:35:17;22.10;50.60
7234;DHT22;3658;47.992;10.158;2023-06-10T11:37:45;22.00;50.50
7234;DHT22;3658;47.992;10.158;2023-06-10T11:40:12;22.10;50.60
7234;DHT22;3658;47.992;10.158;2023-06-10T11:42:40;22.00;50.50
7234;DHT22;3658;47.992;10.158;2023-06-10T11:45:09;22.10;50.50
7234;DHT22;3658;47.992;10.158;2023-06-10T11:47:36;22.10;50.50
7234;DHT22;3658;47.992;10.158;2023-06-10T11:50:03;22.00;50.50
7234;DHT22;3658;47.992;10.158;2023-06-10T11:52:31;22.00;50.50
7234;DHT22;3658;47.992;10.158;2023-06-10T11:54:59;22.10;50.60
7234;DHT22;3658;47.992;10.158;2023-06-10T11:57:26;22.00;50.50
7234;DHT22;3658;47.992;10.158;2023-06-10T11:59:53;22.00;50.50
7234;DHT22;3658;47.992;10.158;2023-06-10T12:02:22;22.00;50.50
7234;DHT22;3658;47.992;10.158;2023-06-10T12:04:48;22.10;50.60
7234;DHT22;3658;47.992;10.158;2023-06-10T12:07:19;22.10;50.60
7234;DHT22;3658;47.992;10.158;2023-06-10T12:09:46;22.10;50.60
7234;DHT22;3658;47.992;10.158;2023-06-10T12:12:13;22.00;50.50
7234;DHT22;3658;47.992;10.158;2023-06-10T12:14:56;22.10;50.60
7234;DHT22;3658;47.992;10.158;2023-06-10T12:17:37;22.10;50.60
7234;DHT22;3658;47.992;10.158;2023-06-10T12:20:06;22.10;50.60
7234;DHT22;3658;47.992;10.158;2023-06-10T12:22:37;22.10;50.60
7234;DHT22;3658;47.992;10.158;2023-06-10T12:25:05;22.10;50.70
7234;DHT22;3658;47.992;10.158;2023-06-10T12:27:33;22.10;50.60
7234;DHT22;3658;47.992;10.158;2023-06-10T12:30:01;22.10;50.50
7234;DHT22;3658;47.992;10.158;2023-06-10T12:32:38;22.10;50.60
7234;DHT22;3658;47.992;10.158;2023-06-10T12:35:06;22.10;50.60
7234;DHT22;3658;47.992;10.158;2023-06-10T12:37:34;22.10;50.60
7234;DHT22;3658;47.992;10.158;2023-06-10T12:40:01;22.10;50.60
7234;DHT22;3658;47.992;10.158;2023-06-10T12:42:29;22.10;50.60
7234;DHT22;3658;47.992;10.158;2023-06-10T12:44:57;22.10;50.70
7234;DHT22;3658;47.992;10.158;2023-06-10T12:47:29;22.10;50.60
7234;DHT22;3658;47.992;10.158;2023-06-10T12:49:59;22.10;50.60
7234;DHT22;3658;47.992;10.158;2023-06-10T12:52:26;22.10;50.60
7234;DHT22;3658;47.992;10.158;2023-06-10T12:54:56;22.10;50.70
7234;DHT22;3658;47.992;10.158;2023-06-10T12:57:24;22.10;50.70
7234;DHT22;3658;47.992;10.158;2023-06-10T12:59:51;22.10;50.60
7234;DHT22;3658;47.992;10.158;2023-06-10T13:02:18;22.10;50.60
7234;DHT22;3658;47.992;10.158;2023-06-10T13:04:46;22.10;50.60
7234;DHT22;3658;47.992;10.158;2023-06-10T13:07:15;22.10;50.70
7234;DHT22;3658;47.992;10.158;2023-06-10T13:09:41;22.10;50.60
7234;DHT22;3658;47.992;10.158;2023-06-10T13:12:09;22.10;50.60
7234;DHT22;3658;47.992;10.158;2023-06-10T13:14:36;22.10;50.60
7234;DHT22;3658;47.992;10.158;2023-06-10T13:17:04;22.10;50.60
7234;DHT22;3658;47.992;10.158;2023-06-10T13:19:31;22.10;50.70
7234;DHT22;3658;47.992;10.158;2023-06-10T13:21:58;22.10;50.70
7234;DHT22;3658;47.992;10.158;2023-06-10T13:24:26;22.10;50.60
7234;DHT22;3658;47.992;10.158;2023-06-10T13:26:53;22.10;50.70
7234;DHT22;3658;47.992;10.158;2023-06-10T13:29:21;22.10;50.70
7234;DHT22;3658;47.992;10.158;2023-06-10T13:31:48;22.10;50.70
7234;DHT22;3658;47.992;10.158;2023-06-10T13:34:15;22.10;50.70
7234;DHT22;3658;47.992;10.158;2023-06-10T13:36:42;22.10;50.70
7234;DHT22;3658;47.992;10.158;2023-06-10T13:39:08;22.10;50.60
7234;DHT22;3658;47.992;10.158;2023-06-10T13:41:36;22.10;50.60
7234;DHT22;3658;47.992;10.158;2023-06-10T13:44:03;22.10;50.70
7234;DHT22;3658;47.992;10.158;2023-06-10T13:46:30;22.10;50.70
7234;DHT22;3658;47.992;10.158;2023-06-10T13:48:57;22.10;50.70
7234;DHT22;3658;47.992;10.158;2023-06-10T13:51:24;22.10;50.70
7234;DHT22;3658;47.992;10.158;2023-06-10T13:53:50;22.00;50.60
7234;DHT22;3658;47.992;10.158;2023-06-10T13:56:18;22.10;50.70
7234;DHT22;3658;47.992;10.158;2023-06-10T13:58:46;22.10;50.70
7234;DHT22;3658;47.992;10.158;2023-06-10T14:01:13;22.10;50.70
7234;DHT22;3658;47.992;10.158;2023-06-10T14:03:39;22.10;50.70
7234;DHT22;3658;47.992;10.158;2023-06-10T14:06:06;22.10;50.70
7234;DHT22;3658;47.992;10.158;2023-06-10T14:08:33;22.10;50.70
7234;DHT22;3658;47.992;10.158;2023-06-10T14:11:00;22.10;50.70
7234;DHT22;3658;47.992;10.158;2023-06-10T14:13:26;22.10;50.70
7234;DHT22;3658;47.992;10.158;2023-06-10T14:15:54;22.10;50.70
7234;DHT22;3658;47.992;10.158;2023-06-10T14:18:21;22.10;50.70
7234;DHT22;3658;47.992;10.158;2023-06-10T14:20:48;22.10;50.70
7234;DHT22;3658;47.992;10.158;2023-06-10T14:23:15;22.10;50.70
7234;DHT22;3658;47.992;10.158;2023-06-10T14:25:42;22.10;50.70
7234;DHT22;3658;47.992;10.158;2023-06-10T14:28:09;22.10;50.70
7234;DHT22;3658;47.992;10.158;2023-06-10T14:30:36;22.10;50.70
7234;DHT22;3658;47.992;10.158;2023-06-10T14:33:04;22.10;50.70
7234;DHT22;3658;47.992;10.158;2023-06-10T14:35:31;22.10;50.80
7234;DHT22;3658;47.992;10.158;2023-06-10T14:38:00;22.10;50.70
7234;DHT22;3658;47.992;10.158;2023-06-10T14:40:26;22.10;50.70
7234;DHT22;3658;47.992;10.158;2023-06-10T14:42:54;22.10;50.70
7234;DHT22;3658;47.992;10.158;2023-06-10T14:45:25;22.10;50.70
7234;DHT22;3658;47.992;10.158;2023-06-10T16:13:10;22.10;50.50
7234;DHT22;3658;47.992;10.158;2023-06-10T16:15:37;22.10;51.00
7234;DHT22;3658;47.992;10.158;2023-06-10T16:18:04;22.10;50.90
7234;DHT22;3658;47.992;10.158;2023-06-10T16:20:31;22.10;51.00
7234;DHT22;3658;47.992;10.158;2023-06-10T16:23:00;22.10;51.00
7234;DHT22;3658;47.992;10.158;2023-06-10T16:25:27;22.10;51.00
7234;DHT22;3658;47.992;10.158;2023-06-10T16:27:54;22.10;50.90
7234;DHT22;3658;47.992;10.158;2023-06-10T16:30:22;22.10;50.90
7234;DHT22;3658;47.992;10.158;2023-06-10T16:32:49;22.10;51.00
7234;DHT22;3658;47.992;10.158;2023-06-10T16:35:16;22.10;50.90
7234;DHT22;3658;47.992;10.158;2023-06-10T16:37:43;22.10;50.90
7234;DHT22;3658;47.992;10.158;2023-06-10T16:40:11;22.10;50.90
7234;DHT22;3658;47.992;10.158;2023-06-10T16:42:38;22.10;50.90
7234;DHT22;3658;47.992;10.158;2023-06-10T16:45:06;22.10;50.90
7234;DHT22;3658;47.992;10.158;2023-06-10T16:47:34;22.10;50.90
7234;DHT22;3658;47.992;10.158;2023-06-10T16:50:01;22.10;51.00
7234;DHT22;3658;47.992;10.158;2023-06-10T16:52:29;22.10;50.90
7234;DHT22;3658;47.992;10.158;2023-06-10T16:54:55;22.10;50.90
7234;DHT22;3658;47.992;10.158;2023-06-10T16:57:22;22.10;50.90
7234;DHT22;3658;47.992;10.158;2023-06-10T16:59:49;22.10;50.90
7234;DHT22;3658;47.992;10.158;2023-06-10T17:02:16;22.10;50.90
7234;DHT22;3658;47.992;10.158;2023-06-10T17:04:44;22.10;50.90
7234;DHT22;3658;47.992;10.158;2023-06-10T17:07:10;22.10;50.90
7234;DHT22;3658;47.992;10.158;2023-06-10T17:09:37;22.10;50.90
7234;DHT22;3658;47.992;10.158;2023-06-10T17:12:04;22.10;50.90
7234;DHT22;3658;47.992;10.158;2023-06-10T17:14:31;22.20;50.90